Time;durP1;ratioP1;P1;durP2;ratioP2;P2;SDS_P1;SDS_P2;PMS_P1;PMS_P2;Temp;Humidity;BMP_temperature;BMP_pressure;BME280_temperature;BME280_humidity;BME280_pressure;Samples;Min_cycle;Max_cycle;Signal;HPM_P1;HPM_P2
2021/05/14 00:00:22;;;;;;;7.18;6.47;;;7.00;73.60;;;;;;5182761;28;20050;-77
2021/05/14 00:02:55;;;;;;;7.10;6.50;;;7.00;73.90;;;;;;5181554;28;20065;-77
2021/05/14 00:05:27;;;;;;;7.40;6.70;;;7.00;73.90;;;;;;5179553;28;20042;-77
2021/05/14 00:07:59;;;;;;;6.90;6.30;;;7.00;73.70;;;;;;5180184;28;20503;-79
2021/05/14 00:10:34;;;;;;;6.82;6.18;;;7.00;73.40;;;;;;5179600;28;20603;-78
2021/05/14 00:13:08;;;;;;;6.95;6.30;;;6.80;73.50;;;;;;5180130;28;20534;-78
2021/05/14 00:15:40;;;;;;;6.47;5.88;;;6.80;73.90;;;;;;5179061;28;20041;-77
2021/05/14 00:18:12;;;;;;;6.68;6.07;;;6.80;73.90;;;;;;5180149;28;20297;-77
2021/05/14 00:20:46;;;;;;;6.90;6.20;;;6.70;73.70;;;;;;5184218;28;20097;-76
2021/05/14 00:23:18;;;;;;;7.55;6.05;;;6.70;74.10;;;;;;5181495;28;20044;-76
2021/05/14 00:25:50;;;;;;;6.80;6.20;;;6.60;74.00;;;;;;5179832;28;20038;-77
2021/05/14 00:28:22;;;;;;;6.47;5.85;;;6.60;74.30;;;;;;5181053;28;20113;-75
2021/05/14 00:30:54;;;;;;;7.00;6.20;;;6.50;74.50;;;;;;5178309;28;20148;-76
2021/05/14 00:33:27;;;;;;;6.60;6.00;;;6.50;74.60;;;;;;5180837;28;20038;-76
2021/05/14 00:35:58;;;;;;;6.50;5.90;;;6.50;75.10;;;;;;5179187;28;20048;-78
2021/05/14 00:38:30;;;;;;;7.60;6.90;;;6.50;74.80;;;;;;5182332;28;20407;-78
2021/05/14 00:41:06;;;;;;;7.07;6.47;;;6.50;75.90;;;;;;5192184;28;20399;-78
2021/05/14 00:43:38;;;;;;;8.60;6.60;;;6.60;75.20;;;;;;5187278;28;20018;-78
2021/05/14 00:46:13;;;;;;;7.50;6.80;;;6.60;74.40;;;;;;5185474;28;20033;-78
2021/05/14 00:48:46;;;;;;;7.10;6.40;;;6.50;73.80;;;;;;5181020;28;20506;-78
2021/05/14 00:51:18;;;;;;;7.00;6.40;;;6.50;73.60;;;;;;5177094;28;20053;-78
2021/05/14 00:53:50;;;;;;;7.13;6.45;;;6.50;74.10;;;;;;5183511;28;20042;-78
2021/05/14 00:56:25;;;;;;;7.10;6.40;;;6.60;75.00;;;;;;5184254;28;20049;-78
2021/05/14 00:58:57;;;;;;;7.32;6.50;;;6.70;75.20;;;;;;5177912;28;20042;-78
2021/05/14 01:01:29;;;;;;;7.55;6.85;;;6.70;74.30;;;;;;5184016;28;20053;-78
2021/05/14 01:04:01;;;;;;;7.60;6.90;;;6.70;74.20;;;;;;5178719;28;20640;-78
2021/05/14 01:06:33;;;;;;;7.70;6.90;;;6.70;74.00;;;;;;5177401;28;20053;-79
2021/05/14 01:09:05;;;;;;;7.32;6.72;;;6.70;74.40;;;;;;5179392;28;20050;-79
2021/05/14 01:11:37;;;;;;;7.70;7.00;;;6.70;74.10;;;;;;5177230;28;20462;-78
2021/05/14 01:14:10;;;;;;;7.38;6.78;;;6.60;74.30;;;;;;5177895;28;20049;-77
2021/05/14 01:16:42;;;;;;;7.75;7.03;;;6.60;74.50;;;;;;5179060;28;20050;-77
2021/05/14 01:19:14;;;;;;;7.43;6.82;;;6.60;74.30;;;;;;5176519;28;20122;-77
2021/05/14 01:21:46;;;;;;;7.57;6.88;;;6.60;74.80;;;;;;5177764;28;20042;-77
2021/05/14 01:24:21;;;;;;;9.00;7.10;;;6.70;74.10;;;;;;5188138;28;20577;-78
2021/05/14 01:26:53;;;;;;;7.75;6.88;;;6.70;74.40;;;;;;5185429;28;20121;-78
2021/05/14 01:29:25;;;;;;;7.85;7.25;;;6.60;74.20;;;;;;5186410;28;20025;-78
2021/05/14 01:31:57;;;;;;;8.07;7.35;;;6.60;74.00;;;;;;5189026;28;20042;-78
2021/05/14 01:34:30;;;;;;;7.75;7.05;;;6.60;74.50;;;;;;5182727;28;20100;-77
2021/05/14 01:37:03;;;;;;;7.80;7.10;;;6.50;74.30;;;;;;5180349;28;20516;-78
2021/05/14 01:39:37;;;;;;;7.57;6.90;;;6.60;74.30;;;;;;5181802;28;20080;-78
2021/05/14 01:42:09;;;;;;;7.78;7.18;;;6.60;74.60;;;;;;5179703;28;20049;-77
2021/05/14 01:44:41;;;;;;;7.65;6.95;;;6.50;74.50;;;;;;5179041;28;20034;-78
2021/05/14 01:47:17;;;;;;;7.78;7.07;;;6.60;74.50;;;;;;5162520;28;20049;-78
2021/05/14 01:49:52;;;;;;;7.40;6.80;;;6.60;74.30;;;;;;5180239;28;20061;-78
2021/05/14 01:55:32;;;;;;;7.80;7.10;;;6.60;74.60;;;;;;5010000;24;20042;-78
2021/05/14 01:58:07;;;;;;;7.50;6.90;;;6.60;73.30;;;;;;4964466;29;20111;-77
2021/05/14 02:00:39;;;;;;;7.63;7.00;;;6.60;73.50;;;;;;4979496;29;20062;-77
2021/05/14 02:03:12;;;;;;;7.18;6.47;;;6.60;73.80;;;;;;4979452;29;20043;-77
2021/05/14 02:05:44;;;;;;;7.57;6.80;;;6.70;73.80;;;;;;4964056;29;20050;-76
2021/05/14 02:08:16;;;;;;;7.57;6.90;;;6.70;74.80;;;;;;4982782;29;20054;-76
2021/05/14 02:10:49;;;;;;;7.55;6.85;;;6.80;74.60;;;;;;4983357;29;20050;-77
2021/05/14 02:13:24;;;;;;;7.68;6.97;;;6.80;74.60;;;;;;4964453;29;20042;-77
2021/05/14 02:15:58;;;;;;;7.50;6.90;;;6.80;75.00;;;;;;4980298;29;20087;-77
2021/05/14 02:18:30;;;;;;;7.38;6.78;;;6.80;74.90;;;;;;4982047;29;20050;-77
2021/05/14 02:21:03;;;;;;;7.40;6.80;;;6.80;74.90;;;;;;4976063;29;20131;-77
2021/05/14 02:23:36;;;;;;;6.90;6.30;;;6.80;74.90;;;;;;4973840;29;20055;-78
2021/05/14 02:26:13;;;;;;;6.95;6.35;;;6.70;75.50;;;;;;4967153;29;20589;-78
2021/05/14 02:28:45;;;;;;;7.32;6.70;;;6.70;75.50;;;;;;4979438;29;20073;-77
2021/05/14 02:31:17;;;;;;;7.57;6.97;;;6.70;75.10;;;;;;4952885;29;20092;-78
2021/05/14 02:33:49;;;;;;;7.28;6.68;;;6.70;75.20;;;;;;4969944;29;20058;-77
2021/05/14 02:36:22;;;;;;;7.18;6.57;;;6.70;75.20;;;;;;4981197;29;20065;-78
2021/05/14 02:38:54;;;;;;;7.38;6.68;;;6.70;75.40;;;;;;4979148;29;20088;-77
2021/05/14 02:41:25;;;;;;;7.32;6.63;;;6.70;75.60;;;;;;4985301;29;20489;-77
2021/05/14 02:43:57;;;;;;;7.30;6.70;;;6.70;75.80;;;;;;4986952;29;20056;-78
2021/05/14 02:46:36;;;;;;;9.13;7.13;;;6.70;76.50;;;;;;4984241;29;20045;-78
2021/05/14 02:49:10;;;;;;;7.20;6.60;;;6.60;76.60;;;;;;4988242;29;20049;-77
2021/05/14 02:51:42;;;;;;;7.40;6.70;;;6.60;76.60;;;;;;4987423;29;20080;-78
2021/05/14 02:54:16;;;;;;;7.65;6.90;;;6.60;76.20;;;;;;4988571;29;20107;-77
2021/05/14 02:56:48;;;;;;;7.40;6.75;;;6.60;76.40;;;;;;4977313;29;20066;-77
2021/05/14 02:59:21;;;;;;;7.72;7.00;;;6.60;76.70;;;;;;4981751;29;20085;-77
2021/05/14 03:01:57;;;;;;;7.20;6.55;;;6.60;75.90;;;;;;4963177;29;20051;-77
2021/05/14 03:04:34;;;;;;;6.97;6.38;;;6.50;75.20;;;;;;4983360;29;20051;-76
2021/05/14 03:07:07;;;;;;;6.90;6.30;;;6.50;75.00;;;;;;4980489;29;20047;-75
2021/05/14 03:09:41;;;;;;;7.07;6.22;;;6.40;74.70;;;;;;4967132;29;20050;-76
2021/05/14 03:12:14;;;;;;;6.80;6.20;;;6.40;75.00;;;;;;4980647;29;20050;-76
2021/05/14 03:14:46;;;;;;;6.85;6.25;;;6.40;75.40;;;;;;4981797;29;20098;-76
2021/05/14 03:17:18;;;;;;;6.97;6.38;;;6.30;74.90;;;;;;4961055;29;20085;-76
2021/05/14 03:19:50;;;;;;;9.65;6.15;;;6.30;75.80;;;;;;4968435;29;20463;-78
2021/05/14 03:22:23;;;;;;;6.60;5.90;;;6.30;74.80;;;;;;4976658;29;20054;-78
2021/05/14 03:24:54;;;;;;;7.10;6.50;;;6.30;74.90;;;;;;4977187;29;20043;-77
2021/05/14 03:27:27;;;;;;;6.80;6.20;;;6.30;75.20;;;;;;4973271;29;20055;-77
2021/05/14 03:29:59;;;;;;;7.03;6.43;;;6.30;75.70;;;;;;4971842;29;20047;-77
2021/05/14 03:32:32;;;;;;;7.55;6.95;;;6.30;76.40;;;;;;4971804;29;20051;-78
2021/05/14 03:35:05;;;;;;;7.40;6.80;;;6.40;76.30;;;;;;4954444;29;20096;-78
2021/05/14 03:37:37;;;;;;;7.45;6.80;;;6.40;76.00;;;;;;4974615;29;20771;-78
2021/05/14 03:40:19;;;;;;;7.45;6.85;;;6.30;75.40;;;;;;4960434;29;20050;-77
2021/05/14 03:42:51;;;;;;;7.53;6.82;;;6.30;76.00;;;;;;4961165;29;20094;-77
2021/05/14 03:45:24;;;;;;;7.50;6.80;;;6.20;75.90;;;;;;4975967;29;20043;-77
2021/05/14 03:47:57;;;;;;;9.00;7.38;;;6.10;76.00;;;;;;4959481;29;20083;-77
2021/05/14 03:50:32;;;;;;;7.60;7.00;;;6.10;75.90;;;;;;4981041;29;20047;-77
2021/05/14 03:53:07;;;;;;;7.60;6.90;;;6.00;75.90;;;;;;4982258;29;20135;-77
2021/05/14 03:55:39;;;;;;;7.10;6.50;;;5.90;75.90;;;;;;4978025;29;20050;-77
2021/05/14 03:58:12;;;;;;;7.32;6.63;;;5.90;75.90;;;;;;4980185;29;20042;-75
2021/05/14 04:00:44;;;;;;;7.60;7.00;;;5.90;75.80;;;;;;4972200;29;20049;-74
2021/05/14 04:03:16;;;;;;;7.97;6.57;;;5.80;76.00;;;;;;4976772;29;20039;-74
2021/05/14 04:05:49;;;;;;;7.13;6.50;;;5.80;75.80;;;;;;4975925;29;20072;-75
2021/05/14 04:08:21;;;;;;;7.22;6.63;;;5.80;76.00;;;;;;4971446;29;20095;-74
2021/05/14 04:16:36;;;;;;;7.00;6.40;;;5.70;77.00;;;;;;4973473;29;20062;-74
2021/05/14 04:19:08;;;;;;;7.22;6.53;;;5.80;77.20;;;;;;4973072;29;20612;-75
2021/05/14 04:21:41;;;;;;;7.10;6.50;;;5.80;77.00;;;;;;4972327;29;20120;-74
2021/05/14 04:24:13;;;;;;;6.60;6.00;;;5.80;76.70;;;;;;4973450;29;20107;-74
2021/05/14 04:26:45;;;;;;;7.03;6.32;;;5.80;76.50;;;;;;4972034;29;20050;-75
2021/05/14 04:29:18;;;;;;;6.47;5.88;;;5.70;76.70;;;;;;4972310;29;20054;-74
2021/05/14 04:31:50;;;;;;;6.63;6.03;;;5.80;76.20;;;;;;4973173;29;20100;-75
2021/05/14 04:34:23;;;;;;;7.20;6.07;;;5.70;76.10;;;;;;4960106;29;20119;-73
2021/05/14 04:37:03;;;;;;;7.25;6.30;;;5.80;76.60;;;;;;4974432;29;20046;-75
2021/05/14 04:39:35;;;;;;;8.13;7.43;;;5.70;77.40;;;;;;4974554;29;20043;-75
2021/05/14 04:42:07;;;;;;;8.27;6.65;;;5.80;77.10;;;;;;4972433;29;20046;-76
2021/05/14 04:44:39;;;;;;;7.28;6.68;;;6.00;77.40;;;;;;4971732;29;20528;-75
2021/05/14 04:47:11;;;;;;;7.30;6.60;;;6.10;77.60;;;;;;4971720;29;20054;-75
2021/05/14 04:49:43;;;;;;;7.45;6.75;;;6.10;78.30;;;;;;4970720;29;20046;-75
2021/05/14 04:52:18;;;;;;;8.63;6.30;;;6.10;78.40;;;;;;4956963;29;20054;-75
2021/05/14 04:54:50;;;;;;;7.13;6.50;;;6.20;78.90;;;;;;4972658;29;20062;-75
2021/05/14 04:57:22;;;;;;;6.85;6.25;;;6.30;78.50;;;;;;4969299;29;20103;-76
2021/05/14 04:59:54;;;;;;;7.38;6.78;;;6.40;78.70;;;;;;4949194;29;20050;-75
2021/05/14 05:02:26;;;;;;;7.47;6.80;;;6.60;78.60;;;;;;4972537;29;20050;-76
2021/05/14 05:04:59;;;;;;;7.15;6.55;;;6.80;78.40;;;;;;4972209;29;20055;-76
2021/05/14 05:07:31;;;;;;;7.15;6.55;;;6.90;78.70;;;;;;4970513;29;20047;-76
2021/05/14 05:10:03;;;;;;;7.45;6.63;;;7.00;77.10;;;;;;4970298;29;20460;-76
2021/05/14 05:12:35;;;;;;;7.20;6.60;;;7.20;77.40;;;;;;4954655;29;20052;-75
2021/05/14 05:15:10;;;;;;;7.20;6.60;;;7.30;77.00;;;;;;4933244;29;20055;-76
2021/05/14 05:17:42;;;;;;;7.93;7.07;;;7.40;76.20;;;;;;4959654;29;20050;-75
2021/05/14 05:20:14;;;;;;;7.78;7.07;;;7.50;74.80;;;;;;4968691;29;20057;-75
2021/05/14 05:22:46;;;;;;;7.32;6.72;;;7.60;75.30;;;;;;4971278;29;20139;-76
2021/05/14 05:25:18;;;;;;;7.50;6.90;;;7.80;75.80;;;;;;4965835;29;20050;-74
2021/05/14 05:27:50;;;;;;;7.43;6.82;;;7.90;75.30;;;;;;4973040;29;20051;-75
2021/05/14 05:30:24;;;;;;;7.70;7.10;;;8.10;75.00;;;;;;4972568;29;20049;-75
2021/05/14 05:32:55;;;;;;;8.07;7.38;;;8.20;74.00;;;;;;4955537;29;20054;-75
2021/05/14 05:35:27;;;;;;;8.27;7.57;;;8.40;75.00;;;;;;4972235;29;20050;-75
2021/05/14 05:37:59;;;;;;;7.90;7.20;;;8.50;73.70;;;;;;4972914;29;20082;-76
2021/05/14 05:40:31;;;;;;;7.72;7.13;;;8.60;73.10;;;;;;4972927;29;20077;-76
2021/05/14 05:43:03;;;;;;;7.55;6.95;;;8.70;71.70;;;;;;4969338;29;20750;-76
2021/05/14 05:45:35;;;;;;;8.40;7.70;;;8.80;71.20;;;;;;4971792;29;20689;-77
2021/05/14 05:48:09;;;;;;;8.10;7.40;;;8.90;70.70;;;;;;4972795;29;20047;-75
2021/05/14 05:50:41;;;;;;;8.68;7.68;;;9.00;70.00;;;;;;4970213;29;20062;-74
2021/05/14 05:53:15;;;;;;;7.90;7.20;;;9.10;71.20;;;;;;4973690;29;20042;-75
2021/05/14 05:55:48;;;;;;;7.97;7.28;;;9.30;69.80;;;;;;4971436;29;20046;-74
2021/05/14 05:58:20;;;;;;;8.05;7.35;;;9.50;71.60;;;;;;4972645;29;20653;-75
2021/05/14 06:00:53;;;;;;;7.65;7.05;;;9.50;69.80;;;;;;4956461;29;20058;-75
2021/05/14 06:03:25;;;;;;;7.70;7.00;;;9.70;70.30;;;;;;4970614;29;20062;-75
2021/05/14 06:05:56;;;;;;;7.70;7.00;;;9.80;67.90;;;;;;4974272;29;20046;-76
2021/05/14 06:08:29;;;;;;;8.23;7.47;;;9.90;67.90;;;;;;4974317;29;20543;-76
2021/05/14 06:11:01;;;;;;;8.02;7.38;;;10.00;68.60;;;;;;4972556;29;20697;-75
2021/05/14 06:13:34;;;;;;;7.97;7.28;;;10.10;68.30;;;;;;4973684;29;20095;-75
2021/05/14 06:16:06;;;;;;;7.95;7.32;;;9.90;66.60;;;;;;4972461;29;20788;-75
2021/05/14 06:18:41;;;;;;;8.20;7.40;;;9.80;68.80;;;;;;4956744;29;20062;-75
2021/05/14 06:21:13;;;;;;;8.63;7.75;;;9.90;69.70;;;;;;4970158;29;20687;-75
2021/05/14 06:23:45;;;;;;;8.63;7.78;;;10.10;69.50;;;;;;4973579;29;20058;-75
2021/05/14 06:26:17;;;;;;;8.15;7.45;;;10.30;64.80;;;;;;4971634;29;20127;-76
2021/05/14 06:28:49;;;;;;;8.65;7.45;;;10.40;66.00;;;;;;4960728;29;20479;-76
2021/05/14 06:31:21;;;;;;;8.45;7.75;;;10.60;69.00;;;;;;4971297;29;20057;-76
2021/05/14 06:33:53;;;;;;;8.50;7.80;;;10.90;65.70;;;;;;4974315;29;20099;-75
2021/05/14 06:36:25;;;;;;;8.13;7.43;;;11.00;63.50;;;;;;4972462;29;20471;-76
2021/05/14 06:38:57;;;;;;;8.55;7.85;;;11.20;68.20;;;;;;4957767;29;20054;-75
2021/05/14 06:41:29;;;;;;;8.60;7.80;;;11.40;67.90;;;;;;4970779;29;20059;-75
2021/05/14 06:44:01;;;;;;;8.48;7.78;;;11.60;69.00;;;;;;4971697;29;20049;-75
2021/05/14 06:46:33;;;;;;;8.10;7.50;;;11.70;60.80;;;;;;4970257;29;20046;-75
2021/05/14 06:49:07;;;;;;;8.38;7.68;;;11.80;58.80;;;;;;4973070;29;20506;-75
2021/05/14 06:51:39;;;;;;;8.60;7.90;;;12.00;58.70;;;;;;4969349;29;20181;-74
2021/05/14 06:54:11;;;;;;;8.63;7.93;;;12.00;54.60;;;;;;4971689;29;20069;-75
2021/05/14 06:56:43;;;;;;;8.90;8.20;;;12.20;59.10;;;;;;4970592;29;20050;-75
2021/05/14 06:59:17;;;;;;;9.35;8.65;;;12.40;58.10;;;;;;4974677;29;20054;-75
2021/05/14 07:01:50;;;;;;;10.00;9.00;;;12.50;57.50;;;;;;4956414;29;20141;-75
2021/05/14 07:04:23;;;;;;;8.70;8.00;;;12.60;55.40;;;;;;4974228;29;20106;-73
2021/05/14 07:06:55;;;;;;;9.38;8.57;;;12.80;58.90;;;;;;4972281;29;20047;-75
2021/05/14 07:09:26;;;;;;;8.90;8.20;;;12.90;54.20;;;;;;4970474;29;20655;-75
2021/05/14 07:11:58;;;;;;;9.05;8.35;;;13.00;54.20;;;;;;4970510;29;20050;-74
2021/05/14 07:14:31;;;;;;;9.88;9.07;;;13.00;54.40;;;;;;4957716;29;20074;-75
2021/05/14 07:17:03;;;;;;;11.05;9.95;;;13.30;56.50;;;;;;4976033;29;20047;-75
2021/05/14 07:19:35;;;;;;;9.38;8.43;;;13.50;53.50;;;;;;4973783;29;20047;-74
2021/05/14 07:22:07;;;;;;;9.88;9.07;;;13.70;57.90;;;;;;4974630;29;20050;-73
2021/05/14 07:24:39;;;;;;;9.77;8.98;;;13.80;54.40;;;;;;4966549;29;20055;-74
2021/05/14 07:27:13;;;;;;;9.20;8.50;;;14.00;58.30;;;;;;4971359;29;20053;-73
2021/05/14 07:29:45;;;;;;;9.80;9.00;;;14.00;53.10;;;;;;4973464;29;20047;-73
2021/05/14 07:32:17;;;;;;;9.45;8.63;;;14.00;54.80;;;;;;4972903;29;20505;-73
2021/05/14 07:34:49;;;;;;;10.27;9.48;;;13.90;57.20;;;;;;4976276;29;21773;-74
2021/05/14 07:37:21;;;;;;;9.43;8.73;;;14.00;59.60;;;;;;4973099;29;20115;-73
2021/05/14 07:39:54;;;;;;;10.10;9.30;;;14.20;59.20;;;;;;4976068;29;20054;-74
2021/05/14 07:42:57;;;;;;;9.55;8.85;;;14.40;58.20;;;;;;4973825;29;20054;-73
2021/05/14 07:45:29;;;;;;;9.48;8.75;;;14.50;52.50;;;;;;4974632;29;20461;-73
2021/05/14 07:48:20;;;;;;;10.25;9.25;;;14.40;56.90;;;;;;4975250;29;20047;-71
2021/05/14 07:51:41;;;;;;;9.40;8.70;;;14.40;59.70;;;;;;4935004;29;20088;-73
2021/05/14 07:54:13;;;;;;;10.07;9.27;;;14.60;59.90;;;;;;4974243;29;20144;-74
2021/05/14 07:56:45;;;;;;;9.88;9.07;;;14.70;58.60;;;;;;4974159;29;20046;-73
2021/05/14 07:59:24;;;;;;;10.30;9.50;;;14.90;56.00;;;;;;4946357;29;20609;-72
2021/05/14 08:02:24;;;;;;;10.05;9.35;;;15.10;51.60;;;;;;4973089;29;20111;-72
2021/05/14 08:04:56;;;;;;;;;;;15.30;53.10;;;;;;4973327;29;20046;-73
2021/05/14 08:07:27;;;;;;;10.13;9.40;;;15.50;51.00;;;;;;4972498;29;20019;-73
2021/05/14 08:10:00;;;;;;;10.20;9.50;;;15.70;50.00;;;;;;4972356;29;20043;-72
2021/05/14 08:12:55;;;;;;;10.57;9.73;;;15.80;50.50;;;;;;4973307;29;20066;-73
2021/05/14 08:15:27;;;;;;;10.27;9.48;;;15.90;49.00;;;;;;4949407;29;20046;-73
2021/05/14 08:17:59;;;;;;;10.23;9.43;;;16.00;49.70;;;;;;4954955;29;20531;-73
2021/05/14 08:20:31;;;;;;;10.52;9.73;;;16.10;44.20;;;;;;4972677;29;20478;-74
2021/05/14 08:23:03;;;;;;;10.38;9.60;;;16.20;48.20;;;;;;4961980;29;20125;-73
2021/05/14 08:25:38;;;;;;;9.77;9.07;;;16.20;48.10;;;;;;4977735;29;20460;-73
2021/05/14 08:28:12;;;;;;;9.82;9.02;;;16.00;48.10;;;;;;4975021;29;20576;-74
2021/05/14 08:30:45;;;;;;;9.80;9.00;;;15.80;47.50;;;;;;4969014;29;20050;-74
2021/05/14 08:33:17;;;;;;;10.68;9.70;;;15.80;48.20;;;;;;4974903;29;20050;-74
2021/05/14 08:35:49;;;;;;;10.20;9.40;;;15.90;47.80;;;;;;4960198;29;20133;-73
2021/05/14 08:38:21;;;;;;;10.15;9.35;;;16.00;42.90;;;;;;4973756;29;21032;-73
2021/05/14 08:40:54;;;;;;;10.35;9.55;;;16.20;45.00;;;;;;4973510;29;20100;-73
2021/05/14 08:43:26;;;;;;;10.05;9.35;;;16.30;44.70;;;;;;4974911;29;20050;-73
2021/05/14 08:46:01;;;;;;;10.73;9.93;;;16.50;49.50;;;;;;4973943;29;20510;-73
2021/05/14 08:48:35;;;;;;;10.27;9.50;;;16.70;48.70;;;;;;4969614;29;20653;-75
2021/05/14 08:51:10;;;;;;;10.30;9.50;;;17.00;43.20;;;;;;4973214;29;20078;-74
2021/05/14 08:54:19;;;;;;;10.77;9.98;;;17.10;46.60;;;;;;4970195;29;20082;-70
2021/05/14 08:56:51;;;;;;;10.65;9.85;;;17.10;41.40;;;;;;4977435;29;20091;-71
2021/05/14 08:59:23;;;;;;;9.93;9.23;;;17.20;42.50;;;;;;4972972;29;20050;-71
2021/05/14 09:01:55;;;;;;;10.40;9.60;;;17.10;42.70;;;;;;4960805;29;20054;-72
2021/05/14 09:04:33;;;;;;;10.23;9.43;;;16.80;44.30;;;;;;4975814;29;20046;-72
2021/05/14 09:07:16;;;;;;;10.32;9.60;;;16.60;41.90;;;;;;4972470;29;20089;-70
2021/05/14 09:10:08;;;;;;;10.35;9.55;;;16.40;43.20;;;;;;4972471;29;20050;-73
2021/05/14 09:12:41;;;;;;;10.23;9.43;;;16.40;44.20;;;;;;4968652;29;20148;-72
2021/05/14 09:15:29;;;;;;;9.80;9.10;;;16.20;38.60;;;;;;4968035;29;20058;-73
2021/05/14 09:18:07;;;;;;;9.93;9.23;;;16.10;41.30;;;;;;4972883;29;20050;-72
2021/05/14 09:20:57;;;;;;;9.45;8.75;;;16.00;43.40;;;;;;4970277;29;20069;-73
2021/05/14 09:23:31;;;;;;;;;;;16.00;47.30;;;;;;4972827;29;20505;-71
2021/05/14 09:26:11;;;;;;;10.05;9.25;;;15.90;47.50;;;;;;4974593;29;19929;-73
2021/05/14 09:28:59;;;;;;;9.95;9.05;;;16.00;47.60;;;;;;4972301;29;20054;-74
2021/05/14 09:31:31;;;;;;;9.88;9.18;;;15.90;48.10;;;;;;4972648;29;20042;-73
2021/05/14 09:34:03;;;;;;;9.80;9.00;;;15.90;49.30;;;;;;4972451;29;20403;-74
2021/05/14 09:36:35;;;;;;;9.90;9.10;;;15.80;45.60;;;;;;4971446;29;20054;-75
2021/05/14 09:39:08;;;;;;;9.77;9.07;;;15.80;48.00;;;;;;4970900;29;20083;-75
2021/05/14 09:41:43;;;;;;;9.45;8.75;;;15.80;51.80;;;;;;4973264;29;20099;-75
2021/05/14 09:44:21;;;;;;;9.60;8.80;;;15.80;49.40;;;;;;4954788;29;20134;-76
2021/05/14 09:46:56;;;;;;;9.57;8.88;;;15.80;52.10;;;;;;4970387;29;20058;-76
2021/05/14 09:49:29;;;;;;;9.38;8.68;;;15.80;49.70;;;;;;4972843;29;20069;-76
2021/05/14 09:52:04;;;;;;;10.27;9.38;;;15.80;49.80;;;;;;4969579;29;20055;-76
2021/05/14 09:54:42;;;;;;;10.10;9.30;;;15.90;49.90;;;;;;4972459;29;20577;-76
2021/05/14 09:57:39;;;;;;;10.13;9.40;;;15.90;50.10;;;;;;4970632;29;20927;-77
2021/05/14 10:00:12;;;;;;;10.18;9.35;;;15.90;50.40;;;;;;4966457;29;20057;-76
2021/05/14 10:02:46;;;;;;;9.88;8.98;;;15.90;48.00;;;;;;4964133;29;20050;-76
2021/05/14 10:05:18;;;;;;;9.90;9.10;;;15.90;46.10;;;;;;4973500;29;20062;-77
2021/05/14 10:07:51;;;;;;;9.75;9.00;;;16.00;50.20;;;;;;4971025;29;20050;-77
2021/05/14 10:10:23;;;;;;;10.13;9.32;;;16.00;50.10;;;;;;4968181;29;20055;-76
2021/05/14 10:12:55;;;;;;;10.02;9.23;;;16.10;51.00;;;;;;4972698;29;20042;-77
2021/05/14 10:15:28;;;;;;;9.70;9.00;;;16.20;48.50;;;;;;4968697;29;20136;-77
2021/05/14 10:18:03;;;;;;;10.38;9.48;;;16.30;52.50;;;;;;4965966;29;20081;-76
2021/05/14 10:20:37;;;;;;;10.63;9.73;;;16.40;51.40;;;;;;4970246;29;20050;-77
2021/05/14 10:23:10;;;;;;;17.92;16.13;;;16.40;45.60;;;;;;4968506;29;20050;-77
2021/05/14 10:25:47;;;;;;;19.38;17.30;;;16.50;49.30;;;;;;4969237;29;20062;-77
2021/05/14 10:28:21;;;;;;;9.77;9.07;;;16.50;39.70;;;;;;4972924;29;20046;-77
2021/05/14 10:31:06;;;;;;;10.02;9.23;;;16.30;42.50;;;;;;4970147;29;20043;-77
2021/05/14 10:33:46;;;;;;;9.63;8.93;;;16.30;48.60;;;;;;4973964;29;20512;-76
2021/05/14 10:36:21;;;;;;;9.50;8.80;;;16.40;51.30;;;;;;4954424;29;20101;-79
2021/05/14 10:39:14;;;;;;;10.00;9.20;;;16.40;39.00;;;;;;4971718;29;20050;-77
2021/05/14 10:42:16;;;;;;;9.73;9.02;;;16.20;40.50;;;;;;4968658;29;20046;-77
2021/05/14 10:44:54;;;;;;;9.35;8.65;;;16.20;48.30;;;;;;4971331;29;20046;-76
2021/05/14 10:47:26;;;;;;;9.48;8.68;;;16.20;42.80;;;;;;4972121;29;20511;-76
2021/05/14 10:50:04;;;;;;;11.50;10.60;;;16.20;44.90;;;;;;4968483;29;20042;-77
2021/05/14 10:53:14;;;;;;;10.23;9.40;;;16.30;41.30;;;;;;4972151;29;20054;-77
2021/05/14 10:55:48;;;;;;;12.30;11.30;;;16.40;45.80;;;;;;4973791;29;20394;-77
2021/05/14 10:58:51;;;;;;;11.43;10.52;;;16.40;43.20;;;;;;4974955;29;20117;-76
2021/05/14 11:01:34;;;;;;;12.13;11.23;;;16.50;42.80;;;;;;4974994;29;20086;-77
2021/05/14 11:04:13;;;;;;;11.13;10.30;;;16.60;41.60;;;;;;4977100;29;20473;-76
2021/05/14 11:06:48;;;;;;;10.68;9.88;;;16.80;46.50;;;;;;4973472;29;20042;-78
2021/05/14 11:09:23;;;;;;;10.98;10.07;;;17.10;47.00;;;;;;4974887;29;20049;-76
2021/05/14 11:12:02;;;;;;;10.80;10.00;;;17.20;37.70;;;;;;4973164;29;20046;-74
2021/05/14 11:14:44;;;;;;;10.38;9.57;;;17.30;44.70;;;;;;4973915;29;20103;-75
2021/05/14 11:17:17;;;;;;;10.65;9.85;;;17.30;38.10;;;;;;4975449;29;20633;-75
2021/05/14 11:19:51;;;;;;;11.00;10.20;;;17.30;41.20;;;;;;4959576;29;20429;-76
2021/05/14 11:22:23;;;;;;;10.90;10.00;;;17.80;38.10;;;;;;4974400;29;20050;-75
2021/05/14 11:25:21;;;;;;;10.63;9.73;;;17.80;34.80;;;;;;4957701;29;20104;-75
2021/05/14 11:27:55;;;;;;;11.35;10.43;;;17.70;41.20;;;;;;4976190;29;20074;-76
2021/05/14 11:30:27;;;;;;;11.10;10.13;;;17.80;37.30;;;;;;4972768;29;20054;-76
2021/05/14 11:32:59;;;;;;;10.77;9.88;;;17.80;34.80;;;;;;4958960;29;20057;-75
2021/05/14 11:35:31;;;;;;;10.70;9.80;;;17.90;33.60;;;;;;4971476;29;20581;-76
2021/05/14 11:38:04;;;;;;;10.98;10.18;;;18.20;40.10;;;;;;4963024;29;20050;-75
2021/05/14 11:40:40;;;;;;;11.07;10.27;;;18.70;40.80;;;;;;4963986;29;20046;-75
2021/05/14 11:43:13;;;;;;;11.25;10.45;;;19.10;38.10;;;;;;4972076;29;20051;-75
2021/05/14 11:45:47;;;;;;;10.57;9.77;;;19.00;39.10;;;;;;4971343;29;20106;-75
2021/05/14 11:48:22;;;;;;;10.95;10.00;;;18.80;37.20;;;;;;4972217;29;20047;-76
2021/05/14 11:50:58;;;;;;;10.88;10.07;;;18.60;39.10;;;;;;4972447;29;20513;-76
2021/05/14 11:53:31;;;;;;;11.20;10.30;;;18.60;39.20;;;;;;4959554;29;20088;-75
2021/05/14 11:56:08;;;;;;;11.07;10.18;;;18.50;41.20;;;;;;4972172;29;20055;-76
2021/05/14 11:58:43;;;;;;;10.40;9.60;;;18.40;41.90;;;;;;4958462;29;20570;-76
2021/05/14 12:01:14;;;;;;;10.38;9.57;;;18.30;40.90;;;;;;4956527;29;20062;-77
2021/05/14 12:03:55;;;;;;;10.35;9.50;;;18.10;39.90;;;;;;4974510;29;20050;-76
2021/05/14 12:06:27;;;;;;;9.63;8.93;;;18.00;42.20;;;;;;4972930;29;20413;-76
2021/05/14 12:09:13;;;;;;;10.20;9.40;;;17.90;41.90;;;;;;4966388;29;20054;-75
2021/05/14 12:11:46;;;;;;;10.10;9.30;;;17.80;42.60;;;;;;4954756;29;20051;-75
2021/05/14 12:14:22;;;;;;;10.82;9.93;;;17.60;41.80;;;;;;4972103;29;20119;-76
2021/05/14 12:16:54;;;;;;;10.45;9.55;;;17.60;42.70;;;;;;4972581;29;20080;-75
2021/05/14 12:19:28;;;;;;;10.10;9.30;;;17.60;39.80;;;;;;4958019;29;20050;-74
2021/05/14 12:22:08;;;;;;;10.15;9.35;;;17.50;42.10;;;;;;4971125;29;20050;-75
2021/05/14 12:24:41;;;;;;;9.82;9.02;;;17.40;40.90;;;;;;4960442;29;20087;-73
2021/05/14 12:27:13;;;;;;;10.40;9.60;;;17.30;43.60;;;;;;4975333;29;20046;-75
2021/05/14 12:29:45;;;;;;;10.05;9.35;;;17.30;41.10;;;;;;4975230;29;20068;-76
2021/05/14 12:32:17;;;;;;;10.60;9.80;;;17.30;43.70;;;;;;4976234;29;20062;-74
2021/05/14 12:34:51;;;;;;;10.30;9.50;;;17.30;44.00;;;;;;4971530;29;20505;-76
2021/05/14 12:37:24;;;;;;;9.88;9.07;;;17.30;46.30;;;;;;4973949;29;20050;-75
2021/05/14 12:39:56;;;;;;;9.95;9.15;;;17.30;46.10;;;;;;4975875;29;20479;-76
2021/05/14 12:42:30;;;;;;;10.45;9.65;;;17.40;46.80;;;;;;4973117;29;20500;-74
2021/05/14 12:45:08;;;;;;;11.00;10.00;;;17.60;47.00;;;;;;4975412;29;20050;-76
2021/05/14 12:47:43;;;;;;;11.30;10.40;;;18.20;45.50;;;;;;4974227;29;20047;-74
2021/05/14 12:50:25;;;;;;;10.40;9.60;;;18.60;44.50;;;;;;4971915;29;20107;-75
2021/05/14 12:52:57;;;;;;;10.52;9.57;;;18.60;43.90;;;;;;4974240;29;20054;-78
2021/05/14 12:55:38;;;;;;;11.43;10.63;;;18.50;41.20;;;;;;4970963;29;20532;-78
2021/05/14 12:58:11;;;;;;;11.43;10.43;;;18.50;44.70;;;;;;4964930;29;20577;-76
2021/05/14 13:00:43;;;;;;;10.65;9.85;;;18.80;40.60;;;;;;4954634;29;20046;-77
2021/05/14 13:03:26;;;;;;;10.82;9.90;;;18.80;38.70;;;;;;4972604;29;20042;-77
2021/05/14 13:05:58;;;;;;;11.07;10.18;;;18.80;42.30;;;;;;4974322;29;20501;-76
2021/05/14 13:08:47;;;;;;;11.10;10.30;;;18.90;44.10;;;;;;4973193;29;20825;-76
2021/05/14 13:11:24;;;;;;;11.38;10.57;;;19.30;41.90;;;;;;4971732;29;20531;-77
2021/05/14 13:13:56;;;;;;;12.32;11.38;;;19.70;42.40;;;;;;4970802;29;20063;-76
2021/05/14 13:16:29;;;;;;;12.13;11.23;;;20.00;42.10;;;;;;4971232;29;20057;-76
2021/05/14 13:19:02;;;;;;;12.00;11.10;;;20.10;37.70;;;;;;4974708;29;20513;-76
2021/05/14 13:21:33;;;;;;;11.85;10.90;;;20.40;40.80;;;;;;4972573;29;20054;-78
2021/05/14 13:24:06;;;;;;;11.68;10.77;;;20.30;37.50;;;;;;4954791;29;20046;-77
2021/05/14 13:26:38;;;;;;;12.23;11.32;;;20.50;39.60;;;;;;4969639;29;20131;-76
2021/05/14 13:29:09;;;;;;;12.60;11.60;;;20.70;38.60;;;;;;4973134;29;20039;-76
2021/05/14 13:31:42;;;;;;;13.07;12.07;;;21.00;38.00;;;;;;4968829;29;20604;-76
2021/05/14 13:34:15;;;;;;;12.43;11.52;;;21.00;36.50;;;;;;4956952;29;20061;-76